sensor_id;sensor_type;location;lat;lon;timestamp;P1;durP1;ratioP1;P2;durP2;ratioP2
69150;SDS011;56257;52.196;13.870;2022-08-19T00:01:58;9.70;;;7.47;;
69150;SDS011;56257;52.196;13.870;2022-08-19T00:04:27;11.27;;;7.37;;
69150;SDS011;56257;52.196;13.870;2022-08-19T00:06:56;10.20;;;7.70;;
69150;SDS011;56257;52.196;13.870;2022-08-19T00:09:24;9.02;;;6.90;;
69150;SDS011;56257;52.196;13.870;2022-08-19T00:11:51;10.15;;;6.90;;
69150;SDS011;56257;52.196;13.870;2022-08-19T00:14:19;9.40;;;7.63;;
69150;SDS011;56257;52.196;13.870;2022-08-19T00:16:47;9.93;;;7.80;;
69150;SDS011;56257;52.196;13.870;2022-08-19T00:19:15;10.77;;;8.13;;
69150;SDS011;56257;52.196;13.870;2022-08-19T00:21:42;9.80;;;7.80;;
69150;SDS011;56257;52.196;13.870;2022-08-19T00:24:10;10.43;;;7.53;;
69150;SDS011;56257;52.196;13.870;2022-08-19T00:26:38;11.02;;;7.63;;
69150;SDS011;56257;52.196;13.870;2022-08-19T00:29:06;10.83;;;7.40;;
69150;SDS011;56257;52.196;13.870;2022-08-19T00:31:34;9.73;;;7.25;;
69150;SDS011;56257;52.196;13.870;2022-08-19T00:34:01;9.25;;;7.40;;
69150;SDS011;56257;52.196;13.870;2022-08-19T00:36:29;10.52;;;8.00;;
69150;SDS011;56257;52.196;13.870;2022-08-19T00:38:56;10.20;;;7.55;;
69150;SDS011;56257;52.196;13.870;2022-08-19T00:41:23;8.77;;;7.17;;
69150;SDS011;56257;52.196;13.870;2022-08-19T00:44:04;9.55;;;7.28;;
69150;SDS011;56257;52.196;13.870;2022-08-19T00:46:40;9.45;;;7.28;;
69150;SDS011;56257;52.196;13.870;2022-08-19T00:49:11;9.10;;;6.65;;
69150;SDS011;56257;52.196;13.870;2022-08-19T00:51:47;11.57;;;7.60;;
69150;SDS011;56257;52.196;13.870;2022-08-19T00:54:16;9.57;;;7.63;;
69150;SDS011;56257;52.196;13.870;2022-08-19T00:56:43;9.43;;;7.07;;
69150;SDS011;56257;52.196;13.870;2022-08-19T00:59:10;9.93;;;7.90;;
69150;SDS011;56257;52.196;13.870;2022-08-19T01:01:58;9.32;;;7.25;;
69150;SDS011;56257;52.196;13.870;2022-08-19T01:04:25;9.63;;;7.90;;
69150;SDS011;56257;52.196;13.870;2022-08-19T01:06:52;10.23;;;7.90;;
69150;SDS011;56257;52.196;13.870;2022-08-19T01:09:18;10.90;;;8.50;;
69150;SDS011;56257;52.196;13.870;2022-08-19T01:11:45;10.73;;;8.10;;
69150;SDS011;56257;52.196;13.870;2022-08-19T01:14:12;8.38;;;7.22;;
69150;SDS011;56257;52.196;13.870;2022-08-19T01:16:39;9.95;;;7.75;;
69150;SDS011;56257;52.196;13.870;2022-08-19T01:19:51;10.60;;;8.03;;
69150;SDS011;56257;52.196;13.870;2022-08-19T01:24:59;9.70;;;7.75;;
69150;SDS011;56257;52.196;13.870;2022-08-19T01:27:26;10.57;;;7.82;;
69150;SDS011;56257;52.196;13.870;2022-08-19T01:30:00;10.00;;;7.60;;
69150;SDS011;56257;52.196;13.870;2022-08-19T01:32:27;8.87;;;7.27;;
69150;SDS011;56257;52.196;13.870;2022-08-19T01:34:59;11.10;;;7.55;;
69150;SDS011;56257;52.196;13.870;2022-08-19T01:37:28;10.52;;;7.93;;
69150;SDS011;56257;52.196;13.870;2022-08-19T01:39:56;10.45;;;7.82;;
69150;SDS011;56257;52.196;13.870;2022-08-19T01:42:23;10.73;;;7.80;;
69150;SDS011;56257;52.196;13.870;2022-08-19T01:44:55;10.50;;;7.50;;
69150;SDS011;56257;52.196;13.870;2022-08-19T01:47:22;11.32;;;7.63;;
69150;SDS011;56257;52.196;13.870;2022-08-19T01:49:49;10.50;;;7.53;;
69150;SDS011;56257;52.196;13.870;2022-08-19T01:52:15;9.55;;;7.55;;
69150;SDS011;56257;52.196;13.870;2022-08-19T01:54:42;11.73;;;7.80;;
69150;SDS011;56257;52.196;13.870;2022-08-19T01:57:10;10.33;;;8.00;;
69150;SDS011;56257;52.196;13.870;2022-08-19T01:59:39;10.38;;;7.03;;
69150;SDS011;56257;52.196;13.870;2022-08-19T02:02:06;8.80;;;7.05;;
69150;SDS011;56257;52.196;13.870;2022-08-19T02:04:34;10.52;;;7.88;;
69150;SDS011;56257;52.196;13.870;2022-08-19T02:07:01;9.90;;;7.22;;
69150;SDS011;56257;52.196;13.870;2022-08-19T02:09:28;9.60;;;7.23;;
69150;SDS011;56257;52.196;13.870;2022-08-19T02:11:57;12.02;;;7.55;;
69150;SDS011;56257;52.196;13.870;2022-08-19T02:14:23;9.50;;;7.15;;
69150;SDS011;56257;52.196;13.870;2022-08-19T02:16:50;10.35;;;7.50;;
69150;SDS011;56257;52.196;13.870;2022-08-19T02:19:16;9.77;;;7.70;;
69150;SDS011;56257;52.196;13.870;2022-08-19T02:21:43;9.23;;;7.10;;
69150;SDS011;56257;52.196;13.870;2022-08-19T02:24:10;10.90;;;7.85;;
69150;SDS011;56257;52.196;13.870;2022-08-19T02:26:37;9.10;;;6.78;;
69150;SDS011;56257;52.196;13.870;2022-08-19T02:29:03;12.65;;;7.30;;
69150;SDS011;56257;52.196;13.870;2022-08-19T02:31:30;11.00;;;7.45;;
69150;SDS011;56257;52.196;13.870;2022-08-19T02:33:57;9.63;;;6.90;;
69150;SDS011;56257;52.196;13.870;2022-08-19T02:36:24;8.90;;;6.90;;
69150;SDS011;56257;52.196;13.870;2022-08-19T02:38:51;10.43;;;6.97;;
69150;SDS011;56257;52.196;13.870;2022-08-19T02:41:30;8.75;;;7.10;;
69150;SDS011;56257;52.196;13.870;2022-08-19T02:43:59;10.00;;;6.63;;
69150;SDS011;56257;52.196;13.870;2022-08-19T02:46:47;9.60;;;6.97;;
69150;SDS011;56257;52.196;13.870;2022-08-19T02:49:17;10.02;;;6.78;;
69150;SDS011;56257;52.196;13.870;2022-08-19T02:51:45;10.63;;;7.88;;
69150;SDS011;56257;52.196;13.870;2022-08-19T02:54:13;9.95;;;7.07;;
69150;SDS011;56257;52.196;13.870;2022-08-19T02:56:40;9.02;;;6.97;;
69150;SDS011;56257;52.196;13.870;2022-08-19T02:59:08;8.90;;;6.40;;
69150;SDS011;56257;52.196;13.870;2022-08-19T03:01:37;10.60;;;6.63;;
69150;SDS011;56257;52.196;13.870;2022-08-19T03:04:07;8.98;;;6.90;;
69150;SDS011;56257;52.196;13.870;2022-08-19T03:06:36;10.32;;;6.75;;
69150;SDS011;56257;52.196;13.870;2022-08-19T03:09:03;8.85;;;6.40;;
69150;SDS011;56257;52.196;13.870;2022-08-19T03:11:31;8.10;;;6.20;;
69150;SDS011;56257;52.196;13.870;2022-08-19T03:13:59;8.68;;;6.70;;
69150;SDS011;56257;52.196;13.870;2022-08-19T03:16:30;10.82;;;6.32;;
69150;SDS011;56257;52.196;13.870;2022-08-19T03:19:00;8.75;;;6.72;;
69150;SDS011;56257;52.196;13.870;2022-08-19T03:21:31;10.18;;;6.55;;
69150;SDS011;56257;52.196;13.870;2022-08-19T03:24:00;9.17;;;6.57;;
69150;SDS011;56257;52.196;13.870;2022-08-19T03:26:28;8.07;;;6.13;;
69150;SDS011;56257;52.196;13.870;2022-08-19T03:28:55;9.70;;;6.78;;
69150;SDS011;56257;52.196;13.870;2022-08-19T03:31:25;9.23;;;6.40;;
69150;SDS011;56257;52.196;13.870;2022-08-19T03:34:13;9.57;;;6.10;;
69150;SDS011;56257;52.196;13.870;2022-08-19T03:36:44;8.33;;;6.00;;
69150;SDS011;56257;52.196;13.870;2022-08-19T03:39:12;10.07;;;6.47;;
69150;SDS011;56257;52.196;13.870;2022-08-19T03:41:40;8.25;;;6.18;;
69150;SDS011;56257;52.196;13.870;2022-08-19T03:44:14;9.00;;;6.63;;
69150;SDS011;56257;52.196;13.870;2022-08-19T03:46:46;9.73;;;6.38;;
69150;SDS011;56257;52.196;13.870;2022-08-19T03:49:16;9.33;;;6.27;;
69150;SDS011;56257;52.196;13.870;2022-08-19T03:51:45;9.48;;;6.95;;
69150;SDS011;56257;52.196;13.870;2022-08-19T03:54:13;9.02;;;6.60;;
69150;SDS011;56257;52.196;13.870;2022-08-19T03:56:42;8.88;;;6.60;;
69150;SDS011;56257;52.196;13.870;2022-08-19T03:59:11;8.40;;;6.70;;
69150;SDS011;56257;52.196;13.870;2022-08-19T04:01:40;8.30;;;6.53;;
69150;SDS011;56257;52.196;13.870;2022-08-19T04:04:07;8.65;;;6.93;;
69150;SDS011;56257;52.196;13.870;2022-08-19T04:06:35;9.52;;;7.15;;
69150;SDS011;56257;52.196;13.870;2022-08-19T04:09:06;8.85;;;6.82;;
69150;SDS011;56257;52.196;13.870;2022-08-19T04:11:39;8.95;;;7.10;;
69150;SDS011;56257;52.196;13.870;2022-08-19T04:14:14;10.97;;;7.60;;
69150;SDS011;56257;52.196;13.870;2022-08-19T04:16:43;9.57;;;6.80;;
69150;SDS011;56257;52.196;13.870;2022-08-19T04:19:10;10.25;;;6.70;;
69150;SDS011;56257;52.196;13.870;2022-08-19T04:21:37;8.27;;;7.00;;
69150;SDS011;56257;52.196;13.870;2022-08-19T04:24:04;9.43;;;6.93;;
69150;SDS011;56257;52.196;13.870;2022-08-19T04:26:34;10.00;;;6.67;;
69150;SDS011;56257;52.196;13.870;2022-08-19T04:29:03;9.10;;;7.03;;
69150;SDS011;56257;52.196;13.870;2022-08-19T04:31:37;9.82;;;6.75;;
69150;SDS011;56257;52.196;13.870;2022-08-19T04:34:05;9.75;;;7.43;;
69150;SDS011;56257;52.196;13.870;2022-08-19T04:36:34;9.10;;;6.60;;
69150;SDS011;56257;52.196;13.870;2022-08-19T04:39:03;8.10;;;6.43;;
69150;SDS011;56257;52.196;13.870;2022-08-19T04:41:35;9.00;;;7.05;;
69150;SDS011;56257;52.196;13.870;2022-08-19T04:44:20;8.13;;;6.63;;
69150;SDS011;56257;52.196;13.870;2022-08-19T04:46:48;10.38;;;7.18;;
69150;SDS011;56257;52.196;13.870;2022-08-19T04:49:17;10.70;;;7.30;;
69150;SDS011;56257;52.196;13.870;2022-08-19T04:51:49;8.13;;;6.53;;
69150;SDS011;56257;52.196;13.870;2022-08-19T04:54:17;9.52;;;7.07;;
69150;SDS011;56257;52.196;13.870;2022-08-19T04:57:04;7.72;;;6.40;;
69150;SDS011;56257;52.196;13.870;2022-08-19T04:59:33;8.73;;;6.70;;
69150;SDS011;56257;52.196;13.870;2022-08-19T05:02:00;8.65;;;7.03;;
69150;SDS011;56257;52.196;13.870;2022-08-19T05:04:27;9.03;;;7.23;;
69150;SDS011;56257;52.196;13.870;2022-08-19T05:06:56;9.02;;;7.22;;
69150;SDS011;56257;52.196;13.870;2022-08-19T05:09:26;8.30;;;6.50;;
69150;SDS011;56257;52.196;13.870;2022-08-19T05:12:13;10.45;;;7.03;;
69150;SDS011;56257;52.196;13.870;2022-08-19T05:14:40;10.80;;;7.40;;
69150;SDS011;56257;52.196;13.870;2022-08-19T05:17:07;8.50;;;6.77;;
69150;SDS011;56257;52.196;13.870;2022-08-19T05:19:53;8.25;;;7.13;;
69150;SDS011;56257;52.196;13.870;2022-08-19T05:22:38;9.63;;;7.00;;
69150;SDS011;56257;52.196;13.870;2022-08-19T05:25:10;8.48;;;7.22;;
69150;SDS011;56257;52.196;13.870;2022-08-19T05:27:45;10.07;;;7.22;;
69150;SDS011;56257;52.196;13.870;2022-08-19T05:30:12;9.33;;;6.87;;
69150;SDS011;56257;52.196;13.870;2022-08-19T05:32:39;7.95;;;6.82;;
69150;SDS011;56257;52.196;13.870;2022-08-19T05:35:06;8.85;;;6.75;;
69150;SDS011;56257;52.196;13.870;2022-08-19T05:37:33;8.95;;;7.28;;
69150;SDS011;56257;52.196;13.870;2022-08-19T05:40:00;9.93;;;7.05;;
69150;SDS011;56257;52.196;13.870;2022-08-19T05:42:27;8.70;;;7.00;;
69150;SDS011;56257;52.196;13.870;2022-08-19T05:44:54;9.55;;;7.47;;
69150;SDS011;56257;52.196;13.870;2022-08-19T05:47:22;9.00;;;7.13;;
69150;SDS011;56257;52.196;13.870;2022-08-19T05:49:49;8.27;;;6.65;;
69150;SDS011;56257;52.196;13.870;2022-08-19T05:52:18;10.10;;;7.00;;
69150;SDS011;56257;52.196;13.870;2022-08-19T05:54:51;8.53;;;7.47;;
69150;SDS011;56257;52.196;13.870;2022-08-19T05:57:21;8.70;;;6.63;;
69150;SDS011;56257;52.196;13.870;2022-08-19T05:59:48;9.70;;;7.10;;
69150;SDS011;56257;52.196;13.870;2022-08-19T06:02:23;9.65;;;7.35;;
69150;SDS011;56257;52.196;13.870;2022-08-19T06:04:49;8.77;;;7.00;;
69150;SDS011;56257;52.196;13.870;2022-08-19T06:07:16;8.20;;;6.73;;
69150;SDS011;56257;52.196;13.870;2022-08-19T06:09:43;9.57;;;7.28;;
69150;SDS011;56257;52.196;13.870;2022-08-19T06:12:27;9.00;;;6.88;;
69150;SDS011;56257;52.196;13.870;2022-08-19T06:14:58;9.50;;;7.15;;
69150;SDS011;56257;52.196;13.870;2022-08-19T06:17:27;10.10;;;6.78;;
69150;SDS011;56257;52.196;13.870;2022-08-19T06:19:57;10.03;;;6.93;;
69150;SDS011;56257;52.196;13.870;2022-08-19T06:22:25;9.90;;;7.65;;
69150;SDS011;56257;52.196;13.870;2022-08-19T06:24:52;10.80;;;7.47;;
69150;SDS011;56257;52.196;13.870;2022-08-19T06:27:20;9.38;;;7.45;;
69150;SDS011;56257;52.196;13.870;2022-08-19T06:29:47;10.50;;;7.97;;
69150;SDS011;56257;52.196;13.870;2022-08-19T06:32:15;9.87;;;7.27;;
69150;SDS011;56257;52.196;13.870;2022-08-19T06:34:42;9.85;;;6.88;;
69150;SDS011;56257;52.196;13.870;2022-08-19T06:37:10;9.68;;;7.28;;
69150;SDS011;56257;52.196;13.870;2022-08-19T06:39:38;9.00;;;7.05;;
69150;SDS011;56257;52.196;13.870;2022-08-19T06:42:06;10.48;;;7.88;;
69150;SDS011;56257;52.196;13.870;2022-08-19T06:44:37;9.80;;;7.30;;
69150;SDS011;56257;52.196;13.870;2022-08-19T06:47:09;12.05;;;7.32;;
69150;SDS011;56257;52.196;13.870;2022-08-19T06:49:49;13.50;;;7.35;;
69150;SDS011;56257;52.196;13.870;2022-08-19T06:52:16;11.77;;;7.78;;
69150;SDS011;56257;52.196;13.870;2022-08-19T06:54:43;11.93;;;8.27;;
69150;SDS011;56257;52.196;13.870;2022-08-19T06:57:22;10.50;;;8.27;;
69150;SDS011;56257;52.196;13.870;2022-08-19T06:59:50;10.15;;;8.32;;
69150;SDS011;56257;52.196;13.870;2022-08-19T07:02:17;10.30;;;7.88;;
69150;SDS011;56257;52.196;13.870;2022-08-19T07:04:44;10.32;;;8.32;;
69150;SDS011;56257;52.196;13.870;2022-08-19T07:07:12;10.02;;;7.93;;
69150;SDS011;56257;52.196;13.870;2022-08-19T07:09:46;11.30;;;8.00;;
69150;SDS011;56257;52.196;13.870;2022-08-19T07:12:25;9.90;;;7.80;;
69150;SDS011;56257;52.196;13.870;2022-08-19T07:14:54;9.75;;;7.55;;
69150;SDS011;56257;52.196;13.870;2022-08-19T07:17:22;10.50;;;7.82;;
69150;SDS011;56257;52.196;13.870;2022-08-19T07:19:50;10.38;;;8.50;;
69150;SDS011;56257;52.196;13.870;2022-08-19T07:22:19;14.00;;;8.50;;
69150;SDS011;56257;52.196;13.870;2022-08-19T07:24:49;11.43;;;8.23;;
69150;SDS011;56257;52.196;13.870;2022-08-19T07:27:19;11.27;;;8.57;;
69150;SDS011;56257;52.196;13.870;2022-08-19T07:29:50;10.15;;;8.13;;
69150;SDS011;56257;52.196;13.870;2022-08-19T07:32:24;11.07;;;8.00;;
69150;SDS011;56257;52.196;13.870;2022-08-19T07:34:53;11.03;;;8.60;;
69150;SDS011;56257;52.196;13.870;2022-08-19T07:37:22;12.07;;;8.45;;
69150;SDS011;56257;52.196;13.870;2022-08-19T07:39:52;12.35;;;9.93;;
69150;SDS011;56257;52.196;13.870;2022-08-19T07:42:19;11.43;;;9.13;;
69150;SDS011;56257;52.196;13.870;2022-08-19T07:44:47;13.00;;;10.48;;
69150;SDS011;56257;52.196;13.870;2022-08-19T07:47:16;13.77;;;9.27;;
69150;SDS011;56257;52.196;13.870;2022-08-19T07:50:05;10.85;;;8.82;;
69150;SDS011;56257;52.196;13.870;2022-08-19T07:52:33;13.05;;;9.98;;
69150;SDS011;56257;52.196;13.870;2022-08-19T07:55:02;13.35;;;9.63;;
69150;SDS011;56257;52.196;13.870;2022-08-19T07:57:30;12.70;;;10.45;;
69150;SDS011;56257;52.196;13.870;2022-08-19T07:59:57;12.70;;;10.17;;
69150;SDS011;56257;52.196;13.870;2022-08-19T08:02:24;10.75;;;9.35;;
69150;SDS011;56257;52.196;13.870;2022-08-19T08:04:50;12.55;;;9.70;;
69150;SDS011;56257;52.196;13.870;2022-08-19T08:07:36;11.73;;;10.43;;
69150;SDS011;56257;52.196;13.870;2022-08-19T08:10:21;12.70;;;9.85;;
69150;SDS011;56257;52.196;13.870;2022-08-19T08:12:49;13.63;;;10.60;;
69150;SDS011;56257;52.196;13.870;2022-08-19T08:15:36;12.35;;;10.38;;
69150;SDS011;56257;52.196;13.870;2022-08-19T08:18:08;12.52;;;10.23;;
69150;SDS011;56257;52.196;13.870;2022-08-19T08:20:36;12.57;;;9.98;;
69150;SDS011;56257;52.196;13.870;2022-08-19T08:23:03;12.00;;;9.15;;
69150;SDS011;56257;52.196;13.870;2022-08-19T08:25:48;12.23;;;9.90;;
69150;SDS011;56257;52.196;13.870;2022-08-19T08:28:15;13.80;;;10.20;;
69150;SDS011;56257;52.196;13.870;2022-08-19T08:30:43;13.38;;;10.55;;
69150;SDS011;56257;52.196;13.870;2022-08-19T08:33:17;12.77;;;9.85;;
69150;SDS011;56257;52.196;13.870;2022-08-19T08:36:06;14.20;;;10.80;;
69150;SDS011;56257;52.196;13.870;2022-08-19T08:38:36;14.00;;;11.27;;
69150;SDS011;56257;52.196;13.870;2022-08-19T08:41:13;14.95;;;11.40;;
69150;SDS011;56257;52.196;13.870;2022-08-19T08:43:46;15.23;;;11.90;;
69150;SDS011;56257;52.196;13.870;2022-08-19T08:46:15;13.65;;;10.82;;
69150;SDS011;56257;52.196;13.870;2022-08-19T08:51:35;13.07;;;11.27;;
69150;SDS011;56257;52.196;13.870;2022-08-19T08:54:24;16.63;;;12.25;;
69150;SDS011;56257;52.196;13.870;2022-08-19T08:56:55;15.43;;;13.55;;
69150;SDS011;56257;52.196;13.870;2022-08-19T09:02:00;16.92;;;12.40;;
69150;SDS011;56257;52.196;13.870;2022-08-19T09:04:27;14.93;;;11.70;;
69150;SDS011;56257;52.196;13.870;2022-08-19T09:07:09;15.38;;;12.18;;
69150;SDS011;56257;52.196;13.870;2022-08-19T09:15:32;15.48;;;12.43;;
69150;SDS011;56257;52.196;13.870;2022-08-19T09:18:03;13.67;;;11.53;;
69150;SDS011;56257;52.196;13.870;2022-08-19T09:20:32;16.80;;;12.75;;
69150;SDS011;56257;52.196;13.870;2022-08-19T09:22:59;16.83;;;12.73;;
69150;SDS011;56257;52.196;13.870;2022-08-19T09:25:26;18.42;;;13.45;;
69150;SDS011;56257;52.196;13.870;2022-08-19T09:27:55;16.02;;;12.75;;
69150;SDS011;56257;52.196;13.870;2022-08-19T09:30:32;13.87;;;12.40;;
69150;SDS011;56257;52.196;13.870;2022-08-19T09:33:00;16.85;;;12.82;;
69150;SDS011;56257;52.196;13.870;2022-08-19T09:35:27;15.05;;;12.90;;
69150;SDS011;56257;52.196;13.870;2022-08-19T09:37:56;15.00;;;11.95;;
69150;SDS011;56257;52.196;13.870;2022-08-19T09:40:26;15.48;;;12.90;;
69150;SDS011;56257;52.196;13.870;2022-08-19T09:42:56;14.90;;;12.40;;
69150;SDS011;56257;52.196;13.870;2022-08-19T09:45:23;16.30;;;12.52;;
69150;SDS011;56257;52.196;13.870;2022-08-19T09:47:51;18.70;;;12.90;;
69150;SDS011;56257;52.196;13.870;2022-08-19T09:50:21;15.75;;;12.90;;
69150;SDS011;56257;52.196;13.870;2022-08-19T09:52:49;16.63;;;13.85;;
69150;SDS011;56257;52.196;13.870;2022-08-19T09:55:20;16.27;;;12.47;;
69150;SDS011;56257;52.196;13.870;2022-08-19T09:57:49;15.77;;;13.52;;
69150;SDS011;56257;52.196;13.870;2022-08-19T10:00:15;17.50;;;13.43;;
69150;SDS011;56257;52.196;13.870;2022-08-19T10:02:42;15.85;;;12.77;;
69150;SDS011;56257;52.196;13.870;2022-08-19T10:05:10;15.73;;;12.98;;
69150;SDS011;56257;52.196;13.870;2022-08-19T10:07:56;16.20;;;13.07;;
69150;SDS011;56257;52.196;13.870;2022-08-19T10:10:22;15.70;;;14.05;;
69150;SDS011;56257;52.196;13.870;2022-08-19T10:12:50;16.33;;;13.38;;
69150;SDS011;56257;52.196;13.870;2022-08-19T10:15:16;15.70;;;13.77;;
69150;SDS011;56257;52.196;13.870;2022-08-19T10:20:12;16.75;;;14.27;;
69150;SDS011;56257;52.196;13.870;2022-08-19T10:22:39;18.10;;;14.10;;
69150;SDS011;56257;52.196;13.870;2022-08-19T10:25:06;17.17;;;14.65;;
69150;SDS011;56257;52.196;13.870;2022-08-19T10:27:33;18.45;;;15.27;;
69150;SDS011;56257;52.196;13.870;2022-08-19T10:30:00;17.15;;;15.27;;
69150;SDS011;56257;52.196;13.870;2022-08-19T10:32:27;17.92;;;14.80;;
69150;SDS011;56257;52.196;13.870;2022-08-19T10:34:59;18.07;;;15.33;;
69150;SDS011;56257;52.196;13.870;2022-08-19T10:37:26;17.67;;;14.13;;
69150;SDS011;56257;52.196;13.870;2022-08-19T10:39:58;15.98;;;14.30;;
69150;SDS011;56257;52.196;13.870;2022-08-19T10:42:25;17.10;;;15.00;;
69150;SDS011;56257;52.196;13.870;2022-08-19T10:44:51;17.05;;;14.48;;
69150;SDS011;56257;52.196;13.870;2022-08-19T10:47:18;20.40;;;14.63;;
69150;SDS011;56257;52.196;13.870;2022-08-19T10:49:51;18.10;;;14.38;;
69150;SDS011;56257;52.196;13.870;2022-08-19T10:52:42;17.90;;;15.00;;
69150;SDS011;56257;52.196;13.870;2022-08-19T10:55:16;16.77;;;14.90;;
69150;SDS011;56257;52.196;13.870;2022-08-19T10:58:12;17.40;;;14.60;;
69150;SDS011;56257;52.196;13.870;2022-08-19T11:00:40;16.03;;;14.33;;
69150;SDS011;56257;52.196;13.870;2022-08-19T11:03:09;23.58;;;15.23;;
69150;SDS011;56257;52.196;13.870;2022-08-19T11:05:36;21.02;;;15.18;;
69150;SDS011;56257;52.196;13.870;2022-08-19T11:08:05;19.35;;;14.25;;
69150;SDS011;56257;52.196;13.870;2022-08-19T11:10:49;19.23;;;14.27;;
69150;SDS011;56257;52.196;13.870;2022-08-19T11:13:27;21.20;;;14.27;;
69150;SDS011;56257;52.196;13.870;2022-08-19T11:16:02;16.38;;;14.23;;
69150;SDS011;56257;52.196;13.870;2022-08-19T11:18:41;15.75;;;14.05;;
69150;SDS011;56257;52.196;13.870;2022-08-19T11:21:19;15.30;;;13.70;;
69150;SDS011;56257;52.196;13.870;2022-08-19T11:23:57;16.63;;;13.77;;
69150;SDS011;56257;52.196;13.870;2022-08-19T11:26:26;15.73;;;13.67;;
69150;SDS011;56257;52.196;13.870;2022-08-19T11:28:53;15.25;;;13.65;;
69150;SDS011;56257;52.196;13.870;2022-08-19T11:31:24;16.17;;;13.90;;
69150;SDS011;56257;52.196;13.870;2022-08-19T11:33:57;15.90;;;14.18;;
69150;SDS011;56257;52.196;13.870;2022-08-19T11:36:26;18.50;;;15.63;;
69150;SDS011;56257;52.196;13.870;2022-08-19T11:38:53;17.63;;;14.63;;
69150;SDS011;56257;52.196;13.870;2022-08-19T11:41:21;17.25;;;14.07;;
69150;SDS011;56257;52.196;13.870;2022-08-19T11:43:52;19.35;;;15.02;;
69150;SDS011;56257;52.196;13.870;2022-08-19T11:46:21;18.52;;;16.00;;
69150;SDS011;56257;52.196;13.870;2022-08-19T11:48:50;18.10;;;15.30;;
69150;SDS011;56257;52.196;13.870;2022-08-19T11:51:18;19.17;;;14.70;;
69150;SDS011;56257;52.196;13.870;2022-08-19T11:53:48;18.10;;;15.05;;
69150;SDS011;56257;52.196;13.870;2022-08-19T11:56:16;16.85;;;15.07;;
69150;SDS011;56257;52.196;13.870;2022-08-19T11:58:43;19.77;;;15.75;;
69150;SDS011;56257;52.196;13.870;2022-08-19T12:01:11;20.33;;;15.57;;
69150;SDS011;56257;52.196;13.870;2022-08-19T12:03:42;18.73;;;15.97;;
69150;SDS011;56257;52.196;13.870;2022-08-19T12:06:11;17.80;;;15.82;;
69150;SDS011;56257;52.196;13.870;2022-08-19T12:08:40;16.75;;;14.70;;
69150;SDS011;56257;52.196;13.870;2022-08-19T12:11:07;18.42;;;14.65;;
69150;SDS011;56257;52.196;13.870;2022-08-19T12:13:34;17.02;;;14.98;;
69150;SDS011;56257;52.196;13.870;2022-08-19T12:16:06;16.97;;;15.00;;
69150;SDS011;56257;52.196;13.870;2022-08-19T12:18:38;18.52;;;15.48;;
69150;SDS011;56257;52.196;13.870;2022-08-19T12:21:07;18.15;;;15.48;;
69150;SDS011;56257;52.196;13.870;2022-08-19T12:23:36;18.52;;;15.32;;
69150;SDS011;56257;52.196;13.870;2022-08-19T12:26:03;17.77;;;15.75;;
69150;SDS011;56257;52.196;13.870;2022-08-19T12:28:30;17.80;;;15.90;;
69150;SDS011;56257;52.196;13.870;2022-08-19T12:30:57;18.63;;;14.88;;
69150;SDS011;56257;52.196;13.870;2022-08-19T12:33:24;19.90;;;15.95;;
69150;SDS011;56257;52.196;13.870;2022-08-19T12:35:53;17.00;;;15.02;;
69150;SDS011;56257;52.196;13.870;2022-08-19T12:38:21;18.30;;;16.00;;
69150;SDS011;56257;52.196;13.870;2022-08-19T12:40:50;17.97;;;14.97;;
69150;SDS011;56257;52.196;13.870;2022-08-19T12:43:23;17.27;;;14.70;;
69150;SDS011;56257;52.196;13.870;2022-08-19T12:45:50;17.08;;;15.02;;
69150;SDS011;56257;52.196;13.870;2022-08-19T12:48:17;18.15;;;14.13;;
69150;SDS011;56257;52.196;13.870;2022-08-19T12:51:00;16.98;;;14.60;;
69150;SDS011;56257;52.196;13.870;2022-08-19T12:53:28;17.73;;;13.97;;
69150;SDS011;56257;52.196;13.870;2022-08-19T12:55:55;18.13;;;13.90;;
69150;SDS011;56257;52.196;13.870;2022-08-19T12:58:23;16.50;;;13.55;;
69150;SDS011;56257;52.196;13.870;2022-08-19T13:00:52;15.48;;;13.32;;
69150;SDS011;56257;52.196;13.870;2022-08-19T13:03:19;15.98;;;13.15;;
69150;SDS011;56257;52.196;13.870;2022-08-19T13:05:50;15.37;;;12.90;;
69150;SDS011;56257;52.196;13.870;2022-08-19T13:08:17;17.10;;;13.07;;
69150;SDS011;56257;52.196;13.870;2022-08-19T13:10:43;16.17;;;13.93;;
69150;SDS011;56257;52.196;13.870;2022-08-19T13:13:10;15.30;;;12.60;;
69150;SDS011;56257;52.196;13.870;2022-08-19T13:15:38;14.40;;;12.38;;
69150;SDS011;56257;52.196;13.870;2022-08-19T13:18:07;15.37;;;13.37;;
69150;SDS011;56257;52.196;13.870;2022-08-19T13:20:35;14.10;;;12.27;;
69150;SDS011;56257;52.196;13.870;2022-08-19T13:23:03;16.35;;;12.93;;
69150;SDS011;56257;52.196;13.870;2022-08-19T13:25:31;15.77;;;12.75;;
69150;SDS011;56257;52.196;13.870;2022-08-19T13:27:58;16.55;;;13.02;;
69150;SDS011;56257;52.196;13.870;2022-08-19T13:30:27;14.80;;;13.10;;
69150;SDS011;56257;52.196;13.870;2022-08-19T13:33:12;15.65;;;13.10;;
69150;SDS011;56257;52.196;13.870;2022-08-19T13:35:46;16.17;;;13.10;;
69150;SDS011;56257;52.196;13.870;2022-08-19T13:38:16;15.98;;;13.27;;
69150;SDS011;56257;52.196;13.870;2022-08-19T13:40:44;16.15;;;12.98;;
69150;SDS011;56257;52.196;13.870;2022-08-19T13:43:12;16.40;;;13.60;;
69150;SDS011;56257;52.196;13.870;2022-08-19T13:45:49;15.07;;;13.18;;
69150;SDS011;56257;52.196;13.870;2022-08-19T13:48:22;15.98;;;13.77;;
69150;SDS011;56257;52.196;13.870;2022-08-19T13:50:49;16.10;;;12.80;;
69150;SDS011;56257;52.196;13.870;2022-08-19T13:53:16;15.93;;;13.45;;
69150;SDS011;56257;52.196;13.870;2022-08-19T13:55:43;16.07;;;13.03;;
69150;SDS011;56257;52.196;13.870;2022-08-19T13:58:10;17.95;;;12.95;;
69150;SDS011;56257;52.196;13.870;2022-08-19T14:00:39;16.52;;;13.95;;
69150;SDS011;56257;52.196;13.870;2022-08-19T14:03:08;14.90;;;12.63;;
69150;SDS011;56257;52.196;13.870;2022-08-19T14:05:35;16.70;;;13.25;;
69150;SDS011;56257;52.196;13.870;2022-08-19T14:08:02;17.90;;;13.83;;
69150;SDS011;56257;52.196;13.870;2022-08-19T14:10:29;16.33;;;12.52;;
69150;SDS011;56257;52.196;13.870;2022-08-19T14:12:58;17.75;;;13.70;;
69150;SDS011;56257;52.196;13.870;2022-08-19T14:15:26;16.42;;;13.25;;
69150;SDS011;56257;52.196;13.870;2022-08-19T14:17:54;15.23;;;12.80;;
69150;SDS011;56257;52.196;13.870;2022-08-19T14:20:21;17.67;;;13.20;;
69150;SDS011;56257;52.196;13.870;2022-08-19T14:22:51;15.65;;;12.57;;
69150;SDS011;56257;52.196;13.870;2022-08-19T14:25:21;17.10;;;13.45;;
69150;SDS011;56257;52.196;13.870;2022-08-19T14:27:49;17.60;;;13.20;;
69150;SDS011;56257;52.196;13.870;2022-08-19T14:30:17;15.30;;;12.75;;
69150;SDS011;56257;52.196;13.870;2022-08-19T14:32:46;16.70;;;12.40;;
69150;SDS011;56257;52.196;13.870;2022-08-19T14:35:13;15.50;;;13.32;;
69150;SDS011;56257;52.196;13.870;2022-08-19T14:37:41;16.52;;;13.00;;
69150;SDS011;56257;52.196;13.870;2022-08-19T14:40:21;17.50;;;13.75;;
69150;SDS011;56257;52.196;13.870;2022-08-19T14:42:56;17.02;;;13.35;;
69150;SDS011;56257;52.196;13.870;2022-08-19T14:45:29;17.43;;;13.77;;
69150;SDS011;56257;52.196;13.870;2022-08-19T14:47:57;17.13;;;13.27;;
69150;SDS011;56257;52.196;13.870;2022-08-19T14:50:26;18.92;;;14.20;;
69150;SDS011;56257;52.196;13.870;2022-08-19T14:53:00;15.57;;;13.02;;
69150;SDS011;56257;52.196;13.870;2022-08-19T14:55:40;16.27;;;14.05;;